Time;durP1;ratioP1;P1;durP2;ratioP2;P2;SDS_P1;SDS_P2;PMS_P1;PMS_P2;Temp;Humidity;BMP_temperature;BMP_pressure;BME280_temperature;BME280_humidity;BME280_pressure;Samples;Min_cycle;Max_cycle;Signal;HPM_P1;HPM_P2
2022/12/10 00:01:24;;;;;;;55.70;25.67;;;0.40;99.90;;;;;;5024478;28;20453;-59
2022/12/10 00:03:49;;;;;;;52.47;23.90;;;0.40;99.90;;;;;;5023857;28;20459;-60
2022/12/10 00:06:18;;;;;;;44.83;23.70;;;0.40;99.90;;;;;;5029009;28;20462;-61
2022/12/10 00:08:44;;;;;;;49.50;24.40;;;0.40;99.90;;;;;;5031129;28;20217;-60
2022/12/10 00:11:12;;;;;;;49.13;24.37;;;0.40;99.90;;;;;;5012281;28;20943;-59
2022/12/10 00:13:38;;;;;;;54.17;23.57;;;0.40;99.90;;;;;;5026156;28;20549;-60
2022/12/10 00:16:07;;;;;;;44.40;24.80;;;0.40;99.90;;;;;;5028514;28;20448;-59
2022/12/10 00:18:36;;;;;;;45.80;23.40;;;0.40;99.90;;;;;;5027020;28;20465;-62
2022/12/10 00:21:04;;;;;;;53.17;24.30;;;0.40;99.90;;;;;;5023891;28;20437;-60
2022/12/10 00:23:31;;;;;;;47.47;24.60;;;0.40;99.90;;;;;;5028751;28;20425;-59
2022/12/10 00:26:09;;;;;;;51.40;26.93;;;0.40;99.90;;;;;;5029828;28;20425;-59
2022/12/10 00:28:35;;;;;;;51.27;25.87;;;0.40;99.90;;;;;;5029454;28;20464;-60
2022/12/10 00:31:09;;;;;;;47.67;24.00;;;0.40;99.90;;;;;;5029629;28;20412;-59
2022/12/10 00:33:35;;;;;;;46.83;24.07;;;0.40;99.90;;;;;;5018308;28;20189;-60
2022/12/10 00:36:13;;;;;;;45.17;24.17;;;0.50;99.90;;;;;;5022316;28;20441;-60
2022/12/10 00:38:40;;;;;;;50.67;24.17;;;0.50;99.90;;;;;;5027148;28;20468;-60
2022/12/10 00:41:05;;;;;;;46.83;23.50;;;0.50;99.90;;;;;;5028723;28;20448;-59
2022/12/10 00:43:31;;;;;;;47.70;22.93;;;0.50;99.90;;;;;;5020856;28;20424;-59
2022/12/10 00:45:57;;;;;;;48.03;24.73;;;0.50;99.90;;;;;;5027190;28;20179;-61
2022/12/10 00:48:23;;;;;;;43.97;22.53;;;0.50;99.90;;;;;;5024930;28;20303;-59
2022/12/10 00:51:20;;;;;;;41.87;23.40;;;0.50;99.90;;;;;;5012325;28;20451;-59
2022/12/10 00:53:47;;;;;;;49.10;23.60;;;0.50;99.90;;;;;;5020217;28;20187;-59
2022/12/10 00:56:16;;;;;;;41.87;23.20;;;0.50;99.90;;;;;;5015016;28;20437;-60
2022/12/10 00:58:42;;;;;;;51.67;23.67;;;0.50;99.90;;;;;;5009451;28;20494;-59
2022/12/10 01:01:25;;;;;;;49.17;23.70;;;0.50;99.90;;;;;;5025560;28;20989;-60
2022/12/10 01:03:54;;;;;;;44.43;22.10;;;0.50;99.90;;;;;;4998886;28;20443;-60
2022/12/10 01:06:25;;;;;;;45.87;23.27;;;0.50;99.90;;;;;;5025243;28;20430;-60
2022/12/10 01:08:53;;;;;;;52.47;23.10;;;0.50;99.90;;;;;;5010985;28;21163;-59
2022/12/10 01:11:21;;;;;;;44.80;22.30;;;0.50;99.90;;;;;;5009383;28;20440;-60
2022/12/10 01:13:47;;;;;;;44.97;23.10;;;0.50;99.90;;;;;;5023491;28;20448;-60
2022/12/10 01:16:16;;;;;;;47.83;22.83;;;0.50;99.90;;;;;;5022942;28;20438;-59
2022/12/10 01:18:41;;;;;;;49.80;23.90;;;0.50;99.90;;;;;;5007954;28;20494;-59
2022/12/10 01:21:10;;;;;;;53.33;24.23;;;0.50;99.90;;;;;;5024093;28;20429;-59
2022/12/10 01:23:38;;;;;;;43.73;22.83;;;0.50;99.90;;;;;;5026908;28;20235;-60
2022/12/10 01:26:07;;;;;;;44.10;22.70;;;0.50;99.90;;;;;;5025688;28;20491;-59
2022/12/10 01:28:35;;;;;;;51.87;24.20;;;0.40;99.90;;;;;;5022716;28;20462;-59
2022/12/10 01:31:12;;;;;;;44.10;22.73;;;0.40;99.90;;;;;;5027880;28;20417;-61
2022/12/10 01:33:39;;;;;;;40.83;22.17;;;0.40;99.90;;;;;;5025274;28;20842;-59
2022/12/10 01:36:09;;;;;;;51.77;23.97;;;0.40;99.90;;;;;;5026665;28;20548;-60
2022/12/10 01:38:34;;;;;;;45.40;23.23;;;0.40;99.90;;;;;;5008069;28;20448;-60
2022/12/10 01:41:00;;;;;;;49.50;21.13;;;0.40;99.90;;;;;;5025908;28;20839;-60
2022/12/10 01:43:26;;;;;;;43.73;21.57;;;0.40;99.90;;;;;;5024395;28;20268;-59
2022/12/10 01:45:52;;;;;;;44.87;22.67;;;0.40;99.90;;;;;;5008952;28;20544;-59
2022/12/10 01:48:18;;;;;;;43.07;22.33;;;0.40;99.90;;;;;;5006431;28;20464;-61
2022/12/10 01:50:44;;;;;;;41.23;19.23;;;0.50;99.90;;;;;;5027768;28;20545;-59
2022/12/10 01:53:10;;;;;;;40.30;21.37;;;0.50;99.90;;;;;;5021384;28;20453;-60
2022/12/10 01:55:47;;;;;;;40.70;20.77;;;0.50;99.90;;;;;;5004070;28;20683;-61
2022/12/10 01:58:15;;;;;;;42.07;20.83;;;0.50;99.90;;;;;;5006262;28;20472;-59
2022/12/10 02:01:06;;;;;;;39.50;20.23;;;0.50;99.90;;;;;;5020029;28;20458;-59
2022/12/10 02:03:59;;;;;;;36.90;19.33;;;0.50;99.90;;;;;;5022455;28;20440;-59
2022/12/10 02:06:38;;;;;;;44.90;21.10;;;0.50;99.90;;;;;;5018942;28;20461;-59
2022/12/10 02:09:07;;;;;;;40.97;20.17;;;0.50;99.90;;;;;;5021649;28;20535;-60
2022/12/10 02:11:48;;;;;;;35.83;19.23;;;0.50;99.90;;;;;;5006088;28;20440;-58
2022/12/10 02:14:36;;;;;;;44.50;20.80;;;0.50;99.90;;;;;;5005464;28;20437;-60
2022/12/10 02:17:09;;;;;;;42.57;21.80;;;0.60;99.90;;;;;;5021046;28;21036;-58
2022/12/10 02:19:52;;;;;;;38.80;20.77;;;0.60;99.90;;;;;;5022678;28;20467;-58
2022/12/10 02:22:20;;;;;;;49.67;21.03;;;0.60;99.90;;;;;;5025506;28;21056;-59
2022/12/10 02:24:49;;;;;;;36.83;18.50;;;0.60;99.90;;;;;;5024705;28;20448;-58
2022/12/10 02:27:27;;;;;;;36.50;18.93;;;0.60;99.90;;;;;;5010682;28;20530;-58
2022/12/10 02:29:55;;;;;;;33.87;19.60;;;0.50;99.90;;;;;;5029504;28;20433;-59
2022/12/10 02:32:29;;;;;;;37.33;19.80;;;0.60;99.90;;;;;;5027288;28;20437;-59
2022/12/10 02:34:59;;;;;;;40.80;18.73;;;0.60;99.90;;;;;;5007800;28;20569;-58
2022/12/10 02:37:31;;;;;;;38.17;19.00;;;0.60;99.90;;;;;;5014289;28;20540;-58
2022/12/10 02:40:01;;;;;;;37.80;19.53;;;0.60;99.90;;;;;;5028708;28;20464;-58
2022/12/10 02:42:30;;;;;;;34.20;17.50;;;0.60;99.90;;;;;;5030042;28;20945;-59
2022/12/10 02:44:57;;;;;;;39.30;18.60;;;0.60;99.90;;;;;;5029450;28;20453;-60
2022/12/10 02:47:23;;;;;;;37.87;17.90;;;0.60;99.90;;;;;;5021412;28;20941;-58
2022/12/10 02:49:53;;;;;;;40.97;19.93;;;0.60;99.90;;;;;;5024481;28;20435;-58
2022/12/10 02:52:20;;;;;;;36.47;18.87;;;0.60;99.90;;;;;;5014566;28;20499;-58
2022/12/10 02:54:48;;;;;;;38.27;18.77;;;0.60;99.90;;;;;;5027328;28;20585;-59
2022/12/10 02:57:32;;;;;;;38.73;19.30;;;0.60;99.90;;;;;;5027328;28;20484;-59
2022/12/10 03:00:02;;;;;;;39.13;18.50;;;0.60;99.90;;;;;;5024262;28;20529;-58
2022/12/10 03:02:40;;;;;;;38.10;18.57;;;0.60;99.90;;;;;;5020904;28;20439;-60
2022/12/10 03:05:13;;;;;;;38.10;18.07;;;0.70;99.90;;;;;;5029068;28;20481;-58
2022/12/10 03:08:05;;;;;;;36.50;18.47;;;0.70;99.90;;;;;;5011371;28;20452;-59
2022/12/10 03:10:40;;;;;;;39.83;20.67;;;0.60;99.90;;;;;;5023625;28;20439;-58
2022/12/10 03:13:10;;;;;;;35.17;19.40;;;0.70;99.90;;;;;;5025955;28;20424;-58
2022/12/10 03:15:39;;;;;;;36.17;17.40;;;0.70;99.90;;;;;;5026696;28;20456;-60
2022/12/10 03:18:06;;;;;;;37.40;17.83;;;0.60;99.90;;;;;;5025857;28;20511;-58
2022/12/10 03:20:36;;;;;;;32.73;16.07;;;0.60;99.90;;;;;;5023865;28;20844;-58
2022/12/10 03:23:07;;;;;;;36.20;18.27;;;0.60;99.90;;;;;;5025685;28;20463;-59
2022/12/10 03:25:33;;;;;;;36.00;17.80;;;0.60;99.90;;;;;;5026546;28;20436;-61
2022/12/10 03:28:00;;;;;;;35.37;17.37;;;0.60;99.90;;;;;;5023268;28;20466;-58
2022/12/10 03:30:26;;;;;;;36.23;18.07;;;0.60;99.90;;;;;;5031717;28;20534;-59
2022/12/10 03:32:53;;;;;;;40.90;18.60;;;0.60;99.90;;;;;;5028000;28;20441;-59
2022/12/10 03:35:22;;;;;;;34.30;18.13;;;0.60;99.90;;;;;;5009105;28;20434;-59
2022/12/10 03:37:49;;;;;;;38.73;18.13;;;0.60;99.90;;;;;;5029490;28;20453;-58
2022/12/10 03:40:17;;;;;;;35.27;18.33;;;0.60;99.90;;;;;;5035576;28;20468;-58
2022/12/10 03:42:43;;;;;;;32.23;17.53;;;0.60;99.90;;;;;;5029511;28;20846;-60
2022/12/10 03:45:09;;;;;;;39.90;19.93;;;0.60;99.90;;;;;;5028433;28;20436;-58
2022/12/10 03:47:35;;;;;;;41.63;20.13;;;0.60;99.90;;;;;;5008524;28;20447;-59
2022/12/10 03:50:01;;;;;;;40.70;21.40;;;0.60;99.90;;;;;;5028999;28;20421;-60
2022/12/10 03:52:26;;;;;;;38.77;19.30;;;0.60;99.90;;;;;;5029357;28;20177;-59
2022/12/10 03:54:52;;;;;;;37.90;20.00;;;0.60;99.90;;;;;;5021167;28;20170;-58
2022/12/10 03:57:17;;;;;;;37.63;18.80;;;0.60;99.90;;;;;;5028015;28;20194;-59
2022/12/10 03:59:43;;;;;;;35.30;19.80;;;0.60;99.90;;;;;;5025455;28;20202;-59
2022/12/10 04:02:10;;;;;;;40.50;20.53;;;0.60;99.90;;;;;;5025037;28;20171;-59
2022/12/10 04:04:36;;;;;;;35.83;18.47;;;0.60;99.90;;;;;;5026795;28;20221;-59
2022/12/10 04:07:03;;;;;;;38.10;18.93;;;0.60;99.90;;;;;;5030688;28;20481;-58
2022/12/10 04:09:29;;;;;;;42.20;20.90;;;0.60;99.90;;;;;;5028904;28;20473;-58
2022/12/10 04:11:58;;;;;;;35.30;17.23;;;0.60;99.90;;;;;;5025965;28;20186;-59
2022/12/10 04:17:09;;;;;;;42.90;18.97;;;0.60;99.90;;;;;;5021423;28;20433;-58
2022/12/10 04:19:35;;;;;;;43.13;20.60;;;0.60;99.90;;;;;;5026194;28;20468;-59
2022/12/10 04:27:35;;;;;;;45.43;20.30;;;0.60;99.90;;;;;;5025058;28;20892;-59
2022/12/10 04:30:01;;;;;;;40.67;20.67;;;0.60;99.90;;;;;;5025196;28;20438;-58
2022/12/10 04:32:28;;;;;;;39.17;18.67;;;0.60;99.90;;;;;;5022720;28;20424;-59
2022/12/10 04:34:54;;;;;;;40.17;19.97;;;0.60;99.90;;;;;;5025219;28;20179;-58
2022/12/10 04:37:21;;;;;;;40.10;19.80;;;0.60;99.90;;;;;;5024304;28;20474;-59
2022/12/10 04:39:49;;;;;;;43.57;20.20;;;0.60;99.90;;;;;;5027588;28;21099;-59
2022/12/10 04:42:14;;;;;;;39.40;18.60;;;0.60;99.90;;;;;;5026436;28;20983;-59
2022/12/10 04:44:40;;;;;;;41.13;18.27;;;0.60;99.90;;;;;;5021985;28;20449;-58
2022/12/10 04:47:08;;;;;;;39.57;19.80;;;0.60;99.90;;;;;;5022815;28;20189;-58
2022/12/10 04:49:33;;;;;;;36.50;17.97;;;0.60;99.90;;;;;;5008116;28;20274;-59
2022/12/10 04:52:00;;;;;;;38.80;19.20;;;0.60;99.90;;;;;;5023799;28;20528;-58
2022/12/10 04:54:25;;;;;;;40.07;19.40;;;0.60;99.90;;;;;;5025221;28;20830;-59
2022/12/10 04:56:51;;;;;;;45.73;19.33;;;0.60;99.90;;;;;;5027449;28;20539;-58
2022/12/10 04:59:17;;;;;;;38.53;19.90;;;0.60;99.90;;;;;;5027351;28;20507;-58
2022/12/10 05:01:43;;;;;;;45.33;19.70;;;0.60;99.90;;;;;;5022144;28;20205;-58
2022/12/10 05:04:12;;;;;;;41.43;19.60;;;0.60;99.90;;;;;;5025499;28;20450;-58
2022/12/10 05:06:38;;;;;;;37.60;18.57;;;0.60;99.90;;;;;;5026814;28;21022;-60
2022/12/10 05:09:05;;;;;;;40.77;20.03;;;0.60;99.90;;;;;;5021504;28;20519;-59
2022/12/10 05:11:32;;;;;;;40.33;18.33;;;0.60;99.90;;;;;;5022294;28;20528;-58
2022/12/10 05:13:58;;;;;;;40.43;19.20;;;0.50;99.90;;;;;;5026800;28;20428;-60
2022/12/10 05:16:27;;;;;;;42.53;19.57;;;0.50;99.90;;;;;;5022965;28;20441;-59
2022/12/10 05:18:54;;;;;;;37.07;18.63;;;0.50;99.90;;;;;;5016403;28;20476;-61
2022/12/10 05:21:21;;;;;;;37.83;19.17;;;0.50;99.90;;;;;;5028091;28;20437;-59
2022/12/10 05:23:50;;;;;;;38.70;19.30;;;0.50;99.90;;;;;;5008752;28;20409;-59
2022/12/10 05:26:25;;;;;;;36.77;18.43;;;0.50;99.90;;;;;;5015298;28;20568;-58
2022/12/10 05:28:55;;;;;;;38.70;19.57;;;0.50;99.90;;;;;;5028297;28;21150;-58
2022/12/10 05:31:30;;;;;;;42.30;21.13;;;0.50;99.90;;;;;;5028294;28;20488;-58
2022/12/10 05:33:57;;;;;;;41.50;19.47;;;0.50;99.90;;;;;;5012628;28;20490;-61
2022/12/10 05:36:26;;;;;;;38.50;18.43;;;0.50;99.90;;;;;;5010546;28;20440;-58
2022/12/10 05:38:53;;;;;;;40.10;19.20;;;0.50;99.90;;;;;;5023822;28;20972;-59
2022/12/10 05:41:21;;;;;;;38.47;19.53;;;0.50;99.90;;;;;;5024818;28;20437;-61
2022/12/10 05:43:48;;;;;;;38.63;18.57;;;0.50;99.90;;;;;;5009124;28;20436;-58
2022/12/10 05:46:16;;;;;;;41.23;20.20;;;0.50;99.90;;;;;;5011464;28;20925;-59
2022/12/10 05:48:42;;;;;;;43.57;19.50;;;0.50;99.90;;;;;;5033020;28;20535;-58
2022/12/10 05:51:11;;;;;;;39.60;17.80;;;0.50;99.90;;;;;;5028382;28;20493;-58
2022/12/10 05:53:37;;;;;;;42.20;18.87;;;0.50;99.90;;;;;;5007447;28;20189;-58
2022/12/10 05:56:07;;;;;;;37.83;19.50;;;0.50;99.90;;;;;;5007968;28;20543;-59
2022/12/10 05:58:32;;;;;;;42.50;21.10;;;0.50;99.90;;;;;;5022791;28;20465;-58
2022/12/10 06:00:59;;;;;;;46.40;21.13;;;0.50;99.90;;;;;;5001432;28;20517;-59
2022/12/10 06:03:27;;;;;;;46.77;22.00;;;0.50;99.90;;;;;;5009419;28;20265;-58
2022/12/10 06:05:52;;;;;;;46.40;19.80;;;0.50;99.90;;;;;;5026363;28;20425;-58
2022/12/10 06:08:18;;;;;;;41.10;19.33;;;0.40;99.90;;;;;;5008932;28;20455;-59
2022/12/10 06:10:44;;;;;;;38.37;20.07;;;0.40;99.90;;;;;;5022948;28;22376;-57
2022/12/10 06:13:10;;;;;;;41.23;20.23;;;0.40;99.90;;;;;;5010309;28;20182;-60
2022/12/10 06:15:39;;;;;;;39.43;20.17;;;0.40;99.90;;;;;;5025602;28;20554;-60
2022/12/10 06:18:05;;;;;;;43.13;22.13;;;0.40;99.90;;;;;;5025640;28;20460;-58
2022/12/10 06:20:30;;;;;;;40.33;20.20;;;0.40;99.90;;;;;;5009982;28;20436;-58
2022/12/10 06:22:56;;;;;;;37.17;18.03;;;0.40;99.90;;;;;;5029060;28;20655;-58
2022/12/10 06:25:22;;;;;;;38.17;19.23;;;0.40;99.90;;;;;;5021617;28;20183;-58
2022/12/10 06:27:47;;;;;;;39.60;18.33;;;0.40;99.90;;;;;;5021671;28;20659;-59
2022/12/10 06:30:13;;;;;;;40.53;18.23;;;0.40;99.90;;;;;;5027853;28;20187;-58
2022/12/10 06:32:39;;;;;;;51.73;23.33;;;0.30;99.90;;;;;;5026554;28;20174;-58
2022/12/10 06:35:05;;;;;;;40.13;19.53;;;0.30;99.90;;;;;;5024552;28;20663;-58
2022/12/10 06:37:31;;;;;;;43.67;19.37;;;0.40;99.90;;;;;;5020511;28;20198;-60
2022/12/10 06:39:56;;;;;;;52.10;19.83;;;0.40;99.90;;;;;;5021834;28;20830;-58
2022/12/10 06:42:22;;;;;;;40.53;17.97;;;0.40;99.90;;;;;;5028382;28;20202;-60
2022/12/10 06:44:48;;;;;;;38.73;18.37;;;0.30;99.90;;;;;;5026165;28;20256;-58
2022/12/10 06:47:14;;;;;;;44.90;21.20;;;0.40;99.90;;;;;;5024975;28;20583;-58
2022/12/10 06:49:40;;;;;;;41.50;18.77;;;0.40;99.90;;;;;;5025874;28;20732;-58
2022/12/10 06:52:06;;;;;;;44.97;19.00;;;0.40;99.90;;;;;;5007603;28;20425;-58
2022/12/10 06:54:32;;;;;;;41.83;19.77;;;0.40;99.90;;;;;;5007131;28;22374;-58
2022/12/10 06:56:58;;;;;;;42.77;20.27;;;0.40;99.90;;;;;;5008119;28;20449;-58
2022/12/10 06:59:24;;;;;;;38.17;17.83;;;0.40;99.90;;;;;;5021710;28;20693;-59
2022/12/10 07:01:49;;;;;;;35.90;18.00;;;0.40;99.90;;;;;;5023991;28;20176;-58
2022/12/10 07:04:15;;;;;;;33.17;16.90;;;0.40;99.90;;;;;;5030241;28;20222;-59
2022/12/10 07:06:41;;;;;;;40.10;18.13;;;0.40;99.90;;;;;;5020250;28;20566;-60
2022/12/10 07:09:07;;;;;;;44.80;18.63;;;0.40;99.90;;;;;;5025436;28;20463;-58
2022/12/10 07:11:32;;;;;;;35.80;17.60;;;0.40;99.90;;;;;;5023795;28;20290;-59
2022/12/10 07:13:59;;;;;;;36.17;18.53;;;0.50;99.90;;;;;;5030152;28;20191;-58
2022/12/10 07:16:27;;;;;;;37.50;17.60;;;0.50;99.90;;;;;;5029090;28;20182;-58
2022/12/10 07:18:55;;;;;;;42.03;19.33;;;0.50;99.90;;;;;;5029894;28;20480;-59
2022/12/10 07:21:23;;;;;;;36.20;17.50;;;0.50;99.90;;;;;;5005618;28;20583;-60
2022/12/10 07:23:50;;;;;;;33.40;17.03;;;0.50;99.90;;;;;;5029522;28;20878;-61
2022/12/10 07:26:16;;;;;;;37.43;17.60;;;0.50;99.90;;;;;;5019296;28;20926;-58
2022/12/10 07:28:41;;;;;;;37.40;18.57;;;0.50;99.90;;;;;;5015252;28;20466;-60
2022/12/10 07:31:08;;;;;;;40.90;18.60;;;0.50;99.90;;;;;;5012505;28;20540;-60
2022/12/10 07:33:35;;;;;;;41.13;18.90;;;0.60;99.90;;;;;;5019997;28;20187;-61
2022/12/10 07:36:10;;;;;;;35.20;17.23;;;0.60;99.90;;;;;;5018777;28;20441;-56
2022/12/10 07:38:36;;;;;;;39.50;21.33;;;0.60;99.90;;;;;;5019626;28;20476;-56
2022/12/10 07:41:08;;;;;;;50.33;20.00;;;0.70;99.90;;;;;;5003924;28;20436;-58
2022/12/10 07:43:36;;;;;;;44.90;20.17;;;0.70;99.90;;;;;;5030719;28;20183;-58
2022/12/10 07:46:14;;;;;;;61.60;27.60;;;0.70;99.90;;;;;;5024716;28;20448;-58
2022/12/10 07:48:42;;;;;;;63.80;29.60;;;0.70;99.90;;;;;;5020785;28;20559;-59
2022/12/10 07:51:08;;;;;;;50.07;24.83;;;0.70;99.90;;;;;;5027959;28;20441;-59
2022/12/10 07:53:34;;;;;;;45.63;22.07;;;0.70;99.90;;;;;;5027983;28;20436;-59
2022/12/10 07:56:00;;;;;;;45.83;21.93;;;0.70;99.90;;;;;;5026399;28;20449;-58
2022/12/10 07:58:26;;;;;;;39.77;19.97;;;0.70;99.90;;;;;;5022384;28;20483;-58
2022/12/10 08:00:52;;;;;;;42.20;19.87;;;0.70;99.90;;;;;;5026820;28;20420;-58
2022/12/10 08:03:18;;;;;;;39.43;19.27;;;0.70;99.90;;;;;;5032078;28;20182;-59
2022/12/10 08:05:43;;;;;;;40.30;18.70;;;0.80;99.90;;;;;;5022343;28;20173;-58
2022/12/10 08:08:09;;;;;;;39.70;20.67;;;0.80;99.90;;;;;;5025464;28;20289;-57
2022/12/10 08:10:38;;;;;;;38.40;18.60;;;0.70;99.90;;;;;;5024358;28;20185;-59
2022/12/10 08:13:05;;;;;;;41.10;20.13;;;0.70;99.90;;;;;;5027611;28;20186;-58
2022/12/10 08:15:32;;;;;;;38.63;18.23;;;0.80;99.90;;;;;;5006802;28;21163;-58
2022/12/10 08:17:59;;;;;;;39.37;20.03;;;0.80;99.90;;;;;;5031212;28;20531;-58
2022/12/10 08:20:25;;;;;;;37.43;19.23;;;0.80;99.90;;;;;;5023823;28;20523;-59
2022/12/10 08:22:51;;;;;;;39.10;18.87;;;0.80;99.90;;;;;;5002129;28;20446;-58
2022/12/10 08:25:16;;;;;;;35.00;18.17;;;0.80;99.90;;;;;;5002091;28;20980;-56
2022/12/10 08:27:42;;;;;;;37.43;18.20;;;0.80;99.90;;;;;;5024638;28;20450;-58
2022/12/10 08:30:08;;;;;;;43.60;17.80;;;0.80;99.90;;;;;;5022241;28;20190;-58
2022/12/10 08:32:34;;;;;;;36.87;17.00;;;0.80;99.90;;;;;;5023910;28;20187;-58
2022/12/10 08:35:00;;;;;;;36.13;17.47;;;0.80;99.90;;;;;;5002026;28;21464;-58
2022/12/10 08:37:26;;;;;;;38.37;18.07;;;0.80;99.90;;;;;;5019978;28;20642;-58
2022/12/10 08:39:51;;;;;;;44.83;19.50;;;0.80;99.90;;;;;;5017073;28;20212;-58
2022/12/10 08:42:17;;;;;;;36.17;18.17;;;0.80;99.90;;;;;;5019205;28;20438;-58
2022/12/10 08:44:43;;;;;;;41.00;18.67;;;0.80;99.90;;;;;;5028398;28;20166;-57
2022/12/10 08:47:08;;;;;;;35.50;17.50;;;0.90;99.90;;;;;;5026677;28;20251;-58
2022/12/10 08:49:34;;;;;;;35.07;16.87;;;0.90;99.90;;;;;;5023820;28;20289;-58
2022/12/10 08:51:59;;;;;;;29.50;14.50;;;0.90;99.90;;;;;;5015984;28;20183;-58
2022/12/10 08:54:25;;;;;;;30.07;15.17;;;0.90;99.90;;;;;;5021353;28;20221;-58
2022/12/10 08:56:51;;;;;;;29.43;14.43;;;0.90;99.90;;;;;;5017944;28;20199;-58
2022/12/10 08:59:16;;;;;;;26.27;14.07;;;0.90;99.90;;;;;;5019507;28;20215;-57
2022/12/10 09:01:42;;;;;;;28.70;14.07;;;0.90;99.90;;;;;;5016936;28;20191;-59
2022/12/10 09:04:08;;;;;;;27.00;13.40;;;0.90;99.90;;;;;;4995328;28;20184;-58
2022/12/10 09:06:33;;;;;;;28.27;14.13;;;1.00;99.90;;;;;;5010224;28;20195;-58
2022/12/10 09:08:59;;;;;;;28.60;13.73;;;1.00;99.90;;;;;;5018305;28;20202;-58
2022/12/10 09:11:31;;;;;;;24.63;12.30;;;1.00;99.90;;;;;;5014560;28;20743;-59
2022/12/10 09:13:57;;;;;;;30.77;12.67;;;1.00;99.90;;;;;;5021685;28;20200;-62
2022/12/10 09:16:29;;;;;;;25.40;12.27;;;1.00;99.90;;;;;;5016893;28;20474;-58
2022/12/10 09:18:55;;;;;;;22.13;11.40;;;0.90;99.90;;;;;;4999901;28;20298;-59
2022/12/10 09:21:21;;;;;;;22.27;11.83;;;0.90;99.90;;;;;;5024974;28;20527;-59
2022/12/10 09:23:46;;;;;;;22.67;11.70;;;0.90;99.90;;;;;;5023950;28;20179;-58
2022/12/10 09:26:14;;;;;;;23.90;12.70;;;0.80;99.90;;;;;;5017846;28;20247;-58
2022/12/10 09:28:41;;;;;;;20.23;11.00;;;0.80;99.90;;;;;;5023555;28;20210;-57
2022/12/10 09:31:07;;;;;;;22.60;11.33;;;0.80;99.90;;;;;;5016337;28;20545;-57
2022/12/10 09:33:34;;;;;;;22.13;11.77;;;0.80;99.90;;;;;;5022961;28;20457;-58
2022/12/10 09:36:03;;;;;;;23.67;11.87;;;0.80;99.90;;;;;;5021094;28;20495;-58
2022/12/10 09:38:29;;;;;;;23.27;12.57;;;0.70;99.90;;;;;;5004881;28;20524;-58
2022/12/10 09:41:18;;;;;;;22.10;11.23;;;0.70;99.90;;;;;;5020671;28;21725;-58
2022/12/10 09:43:49;;;;;;;25.03;13.57;;;0.70;99.90;;;;;;5017932;28;20666;-59
2022/12/10 09:46:20;;;;;;;24.43;12.10;;;0.80;99.90;;;;;;5016509;28;20526;-58
2022/12/10 09:48:48;;;;;;;19.57;11.13;;;0.80;99.90;;;;;;5021076;28;20975;-58
2022/12/10 09:51:22;;;;;;;20.10;10.90;;;0.80;99.90;;;;;;5016722;28;20506;-57
2022/12/10 09:53:58;;;;;;;18.93;9.80;;;0.80;99.90;;;;;;5009614;28;20442;-60
2022/12/10 09:56:34;;;;;;;17.50;10.17;;;0.80;99.90;;;;;;5017094;28;20460;-58
2022/12/10 09:59:06;;;;;;;19.47;10.40;;;0.80;99.90;;;;;;5022862;28;20469;-57
2022/12/10 10:01:34;;;;;;;19.57;10.50;;;0.80;99.90;;;;;;5015819;28;20442;-58
2022/12/10 10:04:00;;;;;;;18.60;10.23;;;0.70;99.90;;;;;;5022594;28;20807;-58
2022/12/10 10:06:27;;;;;;;19.23;10.23;;;0.70;99.90;;;;;;5020253;28;20424;-58
2022/12/10 10:08:56;;;;;;;19.70;11.20;;;0.80;99.90;;;;;;5018583;28;20226;-58
2022/12/10 10:11:27;;;;;;;23.63;11.90;;;0.80;99.90;;;;;;5015590;28;21230;-58
2022/12/10 10:14:01;;;;;;;20.00;12.27;;;0.80;99.90;;;;;;5021868;28;20466;-58
2022/12/10 10:16:45;;;;;;;18.73;10.57;;;0.80;99.90;;;;;;5020815;28;20440;-58
2022/12/10 10:19:39;;;;;;;20.67;10.63;;;0.90;99.90;;;;;;5018533;28;20554;-58
2022/12/10 10:22:05;;;;;;;25.30;13.17;;;0.90;99.90;;;;;;5016102;28;20532;-58
2022/12/10 10:24:45;;;;;;;20.53;11.03;;;0.90;99.90;;;;;;5018499;28;20504;-58
2022/12/10 10:27:11;;;;;;;33.13;12.30;;;1.00;99.90;;;;;;5016816;28;20853;-57
2022/12/10 10:29:37;;;;;;;21.80;11.87;;;1.00;99.90;;;;;;5024796;28;20440;-57
2022/12/10 10:32:15;;;;;;;18.87;10.30;;;1.00;99.90;;;;;;5018849;28;20187;-58
2022/12/10 10:34:42;;;;;;;27.53;11.70;;;1.10;99.90;;;;;;5019349;28;20199;-57
2022/12/10 10:37:29;;;;;;;20.77;10.60;;;1.10;99.90;;;;;;5016943;28;20445;-58
2022/12/10 10:39:56;;;;;;;18.13;9.27;;;1.10;99.90;;;;;;5020785;28;21236;-58
2022/12/10 10:42:38;;;;;;;20.60;10.30;;;1.10;99.90;;;;;;5019226;28;20449;-57
2022/12/10 10:45:25;;;;;;;19.97;11.00;;;1.10;99.90;;;;;;5017144;28;20461;-58
2022/12/10 10:48:09;;;;;;;17.10;9.60;;;1.20;99.90;;;;;;5022773;28;20495;-57
2022/12/10 10:50:53;;;;;;;17.00;10.07;;;1.20;99.90;;;;;;5024725;28;20418;-58
2022/12/10 10:53:33;;;;;;;14.40;8.80;;;1.20;99.90;;;;;;5019441;28;21051;-58
2022/12/10 10:56:21;;;;;;;17.80;9.53;;;1.20;99.90;;;;;;5017388;28;20539;-58
2022/12/10 10:58:52;;;;;;;17.27;9.60;;;1.20;99.90;;;;;;5022431;28;20481;-57
2022/12/10 11:01:19;;;;;;;15.87;8.77;;;1.20;99.90;;;;;;5022432;28;20436;-58
2022/12/10 11:03:52;;;;;;;16.43;9.50;;;1.20;99.90;;;;;;5021069;28;20434;-58
2022/12/10 11:06:19;;;;;;;16.40;9.30;;;1.10;99.90;;;;;;5018876;28;21002;-57
2022/12/10 11:08:46;;;;;;;14.30;8.67;;;1.10;99.90;;;;;;5020652;28;20649;-58
2022/12/10 11:11:22;;;;;;;15.30;8.00;;;1.10;99.90;;;;;;5021619;28;20436;-58
2022/12/10 11:13:47;;;;;;;16.83;9.43;;;1.00;99.90;;;;;;5018891;28;20465;-58
2022/12/10 11:16:23;;;;;;;15.90;9.70;;;1.00;99.90;;;;;;5019217;28;20470;-59
2022/12/10 11:18:57;;;;;;;20.33;9.67;;;1.00;99.90;;;;;;5004478;28;20208;-60
2022/12/10 11:21:24;;;;;;;14.27;9.73;;;1.00;99.90;;;;;;5017964;28;20441;-58
2022/12/10 11:23:55;;;;;;;16.70;9.23;;;1.00;99.90;;;;;;5018176;28;20603;-58
2022/12/10 11:26:36;;;;;;;16.20;9.33;;;1.00;99.90;;;;;;5020766;28;20438;-57
2022/12/10 11:29:20;;;;;;;18.03;9.20;;;1.00;99.90;;;;;;5020338;28;20462;-57
2022/12/10 11:31:58;;;;;;;23.00;11.60;;;0.90;99.90;;;;;;5019245;28;20443;-57
2022/12/10 11:35:11;;;;;;;16.20;9.40;;;0.90;99.90;;;;;;5004607;28;20966;-57
2022/12/10 11:38:02;;;;;;;20.97;10.13;;;0.80;99.90;;;;;;4996025;28;20468;-59
2022/12/10 11:40:47;;;;;;;19.50;10.17;;;0.80;99.90;;;;;;5020516;28;20968;-58
2022/12/10 11:43:40;;;;;;;32.70;13.50;;;0.80;99.90;;;;;;5022076;28;20524;-58
2022/12/10 11:46:14;;;;;;;24.90;11.27;;;0.80;99.90;;;;;;5019234;28;20431;-58
2022/12/10 11:49:22;;;;;;;25.30;12.57;;;0.80;99.90;;;;;;5006786;28;20456;-58
2022/12/10 11:52:18;;;;;;;19.93;10.17;;;0.80;99.90;;;;;;5012427;28;20441;-59
2022/12/10 11:55:15;;;;;;;20.00;9.07;;;0.90;99.90;;;;;;5005821;28;20424;-57
2022/12/10 11:57:49;;;;;;;16.23;9.17;;;0.90;99.90;;;;;;5021320;28;20472;-58
2022/12/10 12:00:20;;;;;;;33.60;14.17;;;0.90;99.90;;;;;;5022718;28;20461;-57
2022/12/10 12:03:12;;;;;;;23.07;11.07;;;0.90;99.90;;;;;;5003154;28;22338;-58
2022/12/10 12:05:57;;;;;;;27.37;12.37;;;0.90;99.90;;;;;;5021078;28;20947;-58
2022/12/10 12:08:39;;;;;;;23.80;11.47;;;0.90;99.90;;;;;;5021723;28;20540;-58
2022/12/10 12:11:19;;;;;;;20.57;10.60;;;0.90;99.90;;;;;;5021997;28;20787;-59
2022/12/10 12:14:01;;;;;;;17.67;9.40;;;0.90;99.90;;;;;;5018993;28;20474;-57
2022/12/10 12:16:44;;;;;;;18.63;10.67;;;0.90;99.90;;;;;;5021655;28;20436;-58
2022/12/10 12:19:16;;;;;;;19.30;10.43;;;0.90;99.90;;;;;;5020757;28;20469;-59
2022/12/10 12:21:44;;;;;;;25.70;9.90;;;1.00;99.90;;;;;;5023010;28;20439;-57
2022/12/10 12:24:15;;;;;;;16.70;9.73;;;1.00;99.90;;;;;;5019262;28;20445;-58
2022/12/10 12:26:51;;;;;;;18.30;9.70;;;1.00;99.90;;;;;;5019221;28;20425;-58
2022/12/10 12:29:38;;;;;;;16.77;8.60;;;1.00;99.90;;;;;;5019815;28;20516;-58
2022/12/10 12:32:10;;;;;;;13.50;8.40;;;1.00;99.90;;;;;;5017652;28;20449;-58
2022/12/10 12:34:52;;;;;;;17.60;9.47;;;0.90;99.90;;;;;;5018759;28;20447;-58
2022/12/10 12:37:22;;;;;;;19.07;9.53;;;0.90;99.90;;;;;;5019867;28;20454;-58
2022/12/10 12:40:11;;;;;;;16.20;7.50;;;0.90;99.90;;;;;;5020541;28;20561;-58
2022/12/10 12:42:53;;;;;;;12.87;8.17;;;0.90;99.90;;;;;;5005857;28;20431;-58
2022/12/10 12:45:36;;;;;;;17.20;10.53;;;0.80;99.90;;;;;;5018333;28;20814;-58
2022/12/10 12:48:23;;;;;;;18.03;10.53;;;0.70;99.90;;;;;;5022739;28;20468;-58
2022/12/10 12:51:46;;;;;;;15.70;8.50;;;0.70;99.90;;;;;;5023695;28;20431;-58
2022/12/10 12:54:12;;;;;;;18.77;10.23;;;0.70;99.90;;;;;;4899724;29;21041;-58
2022/12/10 12:57:03;;;;;;;18.80;11.00;;;0.70;99.90;;;;;;5014093;28;20506;-58
2022/12/10 12:59:37;;;;;;;21.40;11.83;;;0.70;99.90;;;;;;5020588;28;20477;-58
2022/12/10 13:02:44;;;;;;;15.93;10.17;;;0.70;99.90;;;;;;5017582;28;20436;-59
2022/12/10 13:05:34;;;;;;;17.90;9.30;;;0.70;99.90;;;;;;5020361;28;20471;-57